sensor_id;sensor_type;location;lat;lon;timestamp;temperature;humidity
23869;DHT22;12115;47.128;15.422;2023-11-21T00:00:21;6.70;99.90
23869;DHT22;12115;47.128;15.422;2023-11-21T00:02:47;6.80;99.90
23869;DHT22;12115;47.128;15.422;2023-11-21T00:05:13;6.80;99.90
23869;DHT22;12115;47.128;15.422;2023-11-21T00:07:40;6.80;99.90
23869;DHT22;12115;47.128;15.422;2023-11-21T00:10:07;6.80;99.90
23869;DHT22;12115;47.128;15.422;2023-11-21T00:12:36;6.70;99.90
23869;DHT22;12115;47.128;15.422;2023-11-21T00:15:03;6.80;99.90
23869;DHT22;12115;47.128;15.422;2023-11-21T00:17:31;6.70;99.90
23869;DHT22;12115;47.128;15.422;2023-11-21T00:19:57;6.70;99.90
23869;DHT22;12115;47.128;15.422;2023-11-21T00:22:23;6.70;99.90
23869;DHT22;12115;47.128;15.422;2023-11-21T00:24:49;6.70;99.90
23869;DHT22;12115;47.128;15.422;2023-11-21T00:27:15;6.80;99.90
23869;DHT22;12115;47.128;15.422;2023-11-21T00:29:42;6.70;99.90
23869;DHT22;12115;47.128;15.422;2023-11-21T00:32:08;6.80;99.90
23869;DHT22;12115;47.128;15.422;2023-11-21T00:34:34;6.70;99.90
23869;DHT22;12115;47.128;15.422;2023-11-21T00:37:01;6.80;99.90
23869;DHT22;12115;47.128;15.422;2023-11-21T00:39:28;6.70;99.90
23869;DHT22;12115;47.128;15.422;2023-11-21T00:41:54;6.70;99.90
23869;DHT22;12115;47.128;15.422;2023-11-21T00:44:20;6.80;99.90
23869;DHT22;12115;47.128;15.422;2023-11-21T00:46:46;6.80;99.90
23869;DHT22;12115;47.128;15.422;2023-11-21T00:49:13;6.80;99.90
23869;DHT22;12115;47.128;15.422;2023-11-21T00:51:39;6.70;99.90
23869;DHT22;12115;47.128;15.422;2023-11-21T00:54:05;6.70;99.90
23869;DHT22;12115;47.128;15.422;2023-11-21T00:56:32;6.80;99.90
23869;DHT22;12115;47.128;15.422;2023-11-21T00:58:59;6.80;99.90
23869;DHT22;12115;47.128;15.422;2023-11-21T01:01:25;6.80;99.90
23869;DHT22;12115;47.128;15.422;2023-11-21T01:03:52;6.80;99.90
23869;DHT22;12115;47.128;15.422;2023-11-21T01:06:18;6.80;99.90
23869;DHT22;12115;47.128;15.422;2023-11-21T01:08:45;6.80;99.90
23869;DHT22;12115;47.128;15.422;2023-11-21T01:11:11;6.80;99.90
23869;DHT22;12115;47.128;15.422;2023-11-21T01:13:38;6.80;99.90
23869;DHT22;12115;47.128;15.422;2023-11-21T01:16:05;6.80;99.90
23869;DHT22;12115;47.128;15.422;2023-11-21T01:18:32;6.80;99.90
23869;DHT22;12115;47.128;15.422;2023-11-21T01:20:58;6.80;99.90
23869;DHT22;12115;47.128;15.422;2023-11-21T01:23:26;6.80;99.90
23869;DHT22;12115;47.128;15.422;2023-11-21T01:25:53;6.80;99.90
23869;DHT22;12115;47.128;15.422;2023-11-21T01:28:19;6.80;99.90
23869;DHT22;12115;47.128;15.422;2023-11-21T01:30:45;6.80;99.90
23869;DHT22;12115;47.128;15.422;2023-11-21T01:33:12;6.80;99.90
23869;DHT22;12115;47.128;15.422;2023-11-21T01:35:39;6.80;99.90
23869;DHT22;12115;47.128;15.422;2023-11-21T01:38:05;6.70;99.90
23869;DHT22;12115;47.128;15.422;2023-11-21T01:40:34;6.70;99.90
23869;DHT22;12115;47.128;15.422;2023-11-21T01:43:00;6.70;99.90
23869;DHT22;12115;47.128;15.422;2023-11-21T01:45:29;6.70;99.90
23869;DHT22;12115;47.128;15.422;2023-11-21T01:47:57;6.60;99.90
23869;DHT22;12115;47.128;15.422;2023-11-21T01:50:24;6.70;99.90
23869;DHT22;12115;47.128;15.422;2023-11-21T01:52:50;6.70;99.90
23869;DHT22;12115;47.128;15.422;2023-11-21T01:55:17;6.70;99.90
23869;DHT22;12115;47.128;15.422;2023-11-21T01:57:54;6.70;99.90
23869;DHT22;12115;47.128;15.422;2023-11-21T02:00:20;6.70;99.90
23869;DHT22;12115;47.128;15.422;2023-11-21T02:02:47;6.70;99.90
23869;DHT22;12115;47.128;15.422;2023-11-21T02:05:17;6.70;99.90
23869;DHT22;12115;47.128;15.422;2023-11-21T02:07:47;6.70;99.90
23869;DHT22;12115;47.128;15.422;2023-11-21T02:10:14;6.80;99.90
23869;DHT22;12115;47.128;15.422;2023-11-21T02:12:41;6.80;99.90
23869;DHT22;12115;47.128;15.422;2023-11-21T02:15:08;6.80;99.90
23869;DHT22;12115;47.128;15.422;2023-11-21T02:17:44;6.80;99.90
23869;DHT22;12115;47.128;15.422;2023-11-21T02:20:10;6.80;99.90
23869;DHT22;12115;47.128;15.422;2023-11-21T02:22:42;6.80;99.90
23869;DHT22;12115;47.128;15.422;2023-11-21T02:25:09;6.80;99.90
23869;DHT22;12115;47.128;15.422;2023-11-21T02:27:35;6.80;99.90
23869;DHT22;12115;47.128;15.422;2023-11-21T02:30:02;6.80;99.90
23869;DHT22;12115;47.128;15.422;2023-11-21T02:32:30;6.70;99.90
23869;DHT22;12115;47.128;15.422;2023-11-21T02:34:57;6.80;99.90
23869;DHT22;12115;47.128;15.422;2023-11-21T02:37:26;6.70;99.90
23869;DHT22;12115;47.128;15.422;2023-11-21T02:39:53;6.70;99.90
23869;DHT22;12115;47.128;15.422;2023-11-21T02:42:19;6.80;99.90
23869;DHT22;12115;47.128;15.422;2023-11-21T02:44:45;6.80;99.90
23869;DHT22;12115;47.128;15.422;2023-11-21T02:47:11;6.80;99.90
23869;DHT22;12115;47.128;15.422;2023-11-21T02:49:37;6.80;99.90
23869;DHT22;12115;47.128;15.422;2023-11-21T02:52:03;6.80;99.90
23869;DHT22;12115;47.128;15.422;2023-11-21T02:54:30;6.80;99.90
23869;DHT22;12115;47.128;15.422;2023-11-21T02:56:56;6.80;99.90
23869;DHT22;12115;47.128;15.422;2023-11-21T02:59:22;6.80;99.90
23869;DHT22;12115;47.128;15.422;2023-11-21T03:01:49;6.90;99.90
23869;DHT22;12115;47.128;15.422;2023-11-21T03:04:15;6.80;99.90
23869;DHT22;12115;47.128;15.422;2023-11-21T03:06:44;6.90;99.90
23869;DHT22;12115;47.128;15.422;2023-11-21T03:09:10;6.90;99.90
23869;DHT22;12115;47.128;15.422;2023-11-21T03:11:38;6.90;99.90
23869;DHT22;12115;47.128;15.422;2023-11-21T03:14:05;6.90;99.90
23869;DHT22;12115;47.128;15.422;2023-11-21T03:16:34;6.90;99.90
23869;DHT22;12115;47.128;15.422;2023-11-21T03:19:00;6.90;99.90
23869;DHT22;12115;47.128;15.422;2023-11-21T03:21:27;6.90;99.90
23869;DHT22;12115;47.128;15.422;2023-11-21T03:23:53;6.90;99.90
23869;DHT22;12115;47.128;15.422;2023-11-21T03:26:19;6.90;99.90
23869;DHT22;12115;47.128;15.422;2023-11-21T03:28:45;6.90;99.90
23869;DHT22;12115;47.128;15.422;2023-11-21T03:31:12;6.80;99.90
23869;DHT22;12115;47.128;15.422;2023-11-21T03:33:38;6.80;99.90
23869;DHT22;12115;47.128;15.422;2023-11-21T03:36:04;6.90;99.90
23869;DHT22;12115;47.128;15.422;2023-11-21T03:38:30;6.90;99.90
23869;DHT22;12115;47.128;15.422;2023-11-21T03:40:56;6.90;99.90
23869;DHT22;12115;47.128;15.422;2023-11-21T03:43:23;6.90;99.90
23869;DHT22;12115;47.128;15.422;2023-11-21T03:45:50;6.90;99.90
23869;DHT22;12115;47.128;15.422;2023-11-21T03:48:16;6.90;99.90
23869;DHT22;12115;47.128;15.422;2023-11-21T03:50:42;6.90;99.90
23869;DHT22;12115;47.128;15.422;2023-11-21T03:53:08;7.00;99.90
23869;DHT22;12115;47.128;15.422;2023-11-21T03:55:34;7.00;99.90
23869;DHT22;12115;47.128;15.422;2023-11-21T03:58:01;7.00;99.90
23869;DHT22;12115;47.128;15.422;2023-11-21T04:00:27;7.00;99.90
23869;DHT22;12115;47.128;15.422;2023-11-21T04:02:53;7.00;99.90
23869;DHT22;12115;47.128;15.422;2023-11-21T04:05:20;6.90;99.90
23869;DHT22;12115;47.128;15.422;2023-11-21T04:07:48;7.00;99.90
23869;DHT22;12115;47.128;15.422;2023-11-21T04:10:14;7.00;99.90
23869;DHT22;12115;47.128;15.422;2023-11-21T04:12:41;7.00;99.90
23869;DHT22;12115;47.128;15.422;2023-11-21T04:15:08;7.00;99.90
23869;DHT22;12115;47.128;15.422;2023-11-21T04:17:37;7.00;99.90
23869;DHT22;12115;47.128;15.422;2023-11-21T04:20:04;7.00;99.90
23869;DHT22;12115;47.128;15.422;2023-11-21T04:22:40;7.00;99.90
23869;DHT22;12115;47.128;15.422;2023-11-21T04:25:10;7.00;99.90
23869;DHT22;12115;47.128;15.422;2023-11-21T04:27:38;7.10;99.90
23869;DHT22;12115;47.128;15.422;2023-11-21T04:30:05;7.00;99.90
23869;DHT22;12115;47.128;15.422;2023-11-21T04:32:31;7.00;99.90
23869;DHT22;12115;47.128;15.422;2023-11-21T04:34:57;7.00;99.90
23869;DHT22;12115;47.128;15.422;2023-11-21T04:37:23;7.00;99.90
23869;DHT22;12115;47.128;15.422;2023-11-21T04:39:50;7.00;99.90
23869;DHT22;12115;47.128;15.422;2023-11-21T04:42:16;7.10;99.90
23869;DHT22;12115;47.128;15.422;2023-11-21T04:44:42;7.00;99.90
23869;DHT22;12115;47.128;15.422;2023-11-21T04:47:10;7.00;99.90
23869;DHT22;12115;47.128;15.422;2023-11-21T04:49:36;7.10;99.90
23869;DHT22;12115;47.128;15.422;2023-11-21T04:52:02;7.00;99.90
23869;DHT22;12115;47.128;15.422;2023-11-21T04:54:30;7.00;99.90
23869;DHT22;12115;47.128;15.422;2023-11-21T04:56:57;7.00;99.90
23869;DHT22;12115;47.128;15.422;2023-11-21T04:59:23;7.00;99.90
23869;DHT22;12115;47.128;15.422;2023-11-21T05:01:50;7.00;99.90
23869;DHT22;12115;47.128;15.422;2023-11-21T05:04:16;7.00;99.90
23869;DHT22;12115;47.128;15.422;2023-11-21T05:06:43;7.00;99.90
23869;DHT22;12115;47.128;15.422;2023-11-21T05:09:10;7.00;99.90
23869;DHT22;12115;47.128;15.422;2023-11-21T05:11:38;7.00;99.90
23869;DHT22;12115;47.128;15.422;2023-11-21T05:14:04;7.10;99.90
23869;DHT22;12115;47.128;15.422;2023-11-21T05:16:33;7.10;99.90
23869;DHT22;12115;47.128;15.422;2023-11-21T05:19:00;7.10;99.90
23869;DHT22;12115;47.128;15.422;2023-11-21T05:21:27;7.10;99.90
23869;DHT22;12115;47.128;15.422;2023-11-21T05:23:53;7.10;99.90
23869;DHT22;12115;47.128;15.422;2023-11-21T05:26:19;7.10;99.90
23869;DHT22;12115;47.128;15.422;2023-11-21T05:28:46;7.10;99.90
23869;DHT22;12115;47.128;15.422;2023-11-21T05:31:12;7.00;99.90
23869;DHT22;12115;47.128;15.422;2023-11-21T05:33:42;7.00;99.90
23869;DHT22;12115;47.128;15.422;2023-11-21T05:36:09;7.00;99.90
23869;DHT22;12115;47.128;15.422;2023-11-21T05:38:36;7.10;99.90
23869;DHT22;12115;47.128;15.422;2023-11-21T05:41:02;7.10;99.90
23869;DHT22;12115;47.128;15.422;2023-11-21T05:43:29;7.10;99.90
23869;DHT22;12115;47.128;15.422;2023-11-21T05:45:56;7.10;99.90
23869;DHT22;12115;47.128;15.422;2023-11-21T05:48:22;7.10;99.90
23869;DHT22;12115;47.128;15.422;2023-11-21T05:50:49;7.10;99.90
23869;DHT22;12115;47.128;15.422;2023-11-21T05:53:15;7.10;99.90
23869;DHT22;12115;47.128;15.422;2023-11-21T05:55:42;7.00;99.90
23869;DHT22;12115;47.128;15.422;2023-11-21T05:58:08;7.00;99.90
23869;DHT22;12115;47.128;15.422;2023-11-21T06:00:34;7.00;99.90
23869;DHT22;12115;47.128;15.422;2023-11-21T06:03:01;7.00;99.90
23869;DHT22;12115;47.128;15.422;2023-11-21T06:05:28;7.10;99.90
23869;DHT22;12115;47.128;15.422;2023-11-21T06:07:58;7.10;99.90
23869;DHT22;12115;47.128;15.422;2023-11-21T06:10:27;7.10;99.90
23869;DHT22;12115;47.128;15.422;2023-11-21T06:12:54;7.10;99.90
23869;DHT22;12115;47.128;15.422;2023-11-21T06:15:20;7.10;99.90
23869;DHT22;12115;47.128;15.422;2023-11-21T06:17:48;7.10;99.90
23869;DHT22;12115;47.128;15.422;2023-11-21T06:20:18;7.10;99.90
23869;DHT22;12115;47.128;15.422;2023-11-21T06:22:45;7.00;99.90
23869;DHT22;12115;47.128;15.422;2023-11-21T06:25:12;7.10;99.90
23869;DHT22;12115;47.128;15.422;2023-11-21T06:27:39;7.10;99.90
23869;DHT22;12115;47.128;15.422;2023-11-21T06:30:06;7.10;99.90
23869;DHT22;12115;47.128;15.422;2023-11-21T06:32:32;7.10;99.90
23869;DHT22;12115;47.128;15.422;2023-11-21T06:34:58;7.10;99.90
23869;DHT22;12115;47.128;15.422;2023-11-21T06:37:29;7.10;99.90
23869;DHT22;12115;47.128;15.422;2023-11-21T06:39:55;7.10;99.90
23869;DHT22;12115;47.128;15.422;2023-11-21T06:42:22;7.10;99.90
23869;DHT22;12115;47.128;15.422;2023-11-21T06:44:49;7.10;99.90
23869;DHT22;12115;47.128;15.422;2023-11-21T06:47:20;7.10;99.90
23869;DHT22;12115;47.128;15.422;2023-11-21T06:49:52;7.10;99.90
23869;DHT22;12115;47.128;15.422;2023-11-21T06:52:18;7.10;99.90
23869;DHT22;12115;47.128;15.422;2023-11-21T06:54:45;7.10;99.90
23869;DHT22;12115;47.128;15.422;2023-11-21T06:57:11;7.20;99.90
23869;DHT22;12115;47.128;15.422;2023-11-21T06:59:37;7.20;99.90
23869;DHT22;12115;47.128;15.422;2023-11-21T07:02:04;7.20;99.90
23869;DHT22;12115;47.128;15.422;2023-11-21T07:04:33;7.20;99.90
23869;DHT22;12115;47.128;15.422;2023-11-21T07:06:59;7.20;99.90
23869;DHT22;12115;47.128;15.422;2023-11-21T07:09:25;7.20;99.90
23869;DHT22;12115;47.128;15.422;2023-11-21T07:11:52;7.20;99.90
23869;DHT22;12115;47.128;15.422;2023-11-21T07:14:18;7.20;99.90
23869;DHT22;12115;47.128;15.422;2023-11-21T07:16:45;7.20;99.90
23869;DHT22;12115;47.128;15.422;2023-11-21T07:19:12;7.20;99.90
23869;DHT22;12115;47.128;15.422;2023-11-21T07:21:38;7.20;99.90
23869;DHT22;12115;47.128;15.422;2023-11-21T07:24:07;7.20;99.90
23869;DHT22;12115;47.128;15.422;2023-11-21T07:26:34;7.30;99.90
23869;DHT22;12115;47.128;15.422;2023-11-21T07:29:04;7.30;99.90
23869;DHT22;12115;47.128;15.422;2023-11-21T07:31:30;7.30;99.90
23869;DHT22;12115;47.128;15.422;2023-11-21T07:33:57;7.30;99.90
23869;DHT22;12115;47.128;15.422;2023-11-21T07:36:23;7.30;99.90
23869;DHT22;12115;47.128;15.422;2023-11-21T07:38:50;7.30;99.90
23869;DHT22;12115;47.128;15.422;2023-11-21T07:41:17;7.30;99.90
23869;DHT22;12115;47.128;15.422;2023-11-21T07:43:56;7.30;99.90
23869;DHT22;12115;47.128;15.422;2023-11-21T07:46:22;7.30;99.90
23869;DHT22;12115;47.128;15.422;2023-11-21T07:48:49;7.30;99.90
23869;DHT22;12115;47.128;15.422;2023-11-21T07:51:16;7.40;99.90
23869;DHT22;12115;47.128;15.422;2023-11-21T07:53:42;7.40;99.90
23869;DHT22;12115;47.128;15.422;2023-11-21T07:56:08;7.40;99.90
23869;DHT22;12115;47.128;15.422;2023-11-21T07:58:35;7.50;99.90
23869;DHT22;12115;47.128;15.422;2023-11-21T08:01:02;7.50;99.90
23869;DHT22;12115;47.128;15.422;2023-11-21T08:03:28;7.50;99.90
23869;DHT22;12115;47.128;15.422;2023-11-21T08:05:58;7.50;99.90
23869;DHT22;12115;47.128;15.422;2023-11-21T08:08:24;7.50;99.90
23869;DHT22;12115;47.128;15.422;2023-11-21T08:10:50;7.60;99.90
23869;DHT22;12115;47.128;15.422;2023-11-21T08:13:25;7.60;99.90
23869;DHT22;12115;47.128;15.422;2023-11-21T08:15:56;7.70;99.90
23869;DHT22;12115;47.128;15.422;2023-11-21T08:18:24;7.70;99.90
23869;DHT22;12115;47.128;15.422;2023-11-21T08:20:50;7.70;99.90
23869;DHT22;12115;47.128;15.422;2023-11-21T08:23:16;7.70;99.90
23869;DHT22;12115;47.128;15.422;2023-11-21T08:25:43;7.70;99.90
23869;DHT22;12115;47.128;15.422;2023-11-21T08:28:10;7.70;99.90
23869;DHT22;12115;47.128;15.422;2023-11-21T08:30:39;7.70;99.90
23869;DHT22;12115;47.128;15.422;2023-11-21T08:33:07;7.80;99.90
23869;DHT22;12115;47.128;15.422;2023-11-21T08:35:34;7.80;99.90
23869;DHT22;12115;47.128;15.422;2023-11-21T08:38:02;7.90;99.90
23869;DHT22;12115;47.128;15.422;2023-11-21T08:40:28;7.90;99.90
23869;DHT22;12115;47.128;15.422;2023-11-21T08:42:55;7.90;99.90
23869;DHT22;12115;47.128;15.422;2023-11-21T08:45:21;8.00;99.90
23869;DHT22;12115;47.128;15.422;2023-11-21T08:47:48;8.00;99.90
23869;DHT22;12115;47.128;15.422;2023-11-21T08:50:14;8.10;99.90
23869;DHT22;12115;47.128;15.422;2023-11-21T08:52:41;8.10;99.90
23869;DHT22;12115;47.128;15.422;2023-11-21T08:55:08;8.10;99.90
23869;DHT22;12115;47.128;15.422;2023-11-21T08:57:35;8.20;99.90
23869;DHT22;12115;47.128;15.422;2023-11-21T09:00:02;8.20;99.90
23869;DHT22;12115;47.128;15.422;2023-11-21T09:02:30;8.20;99.90
23869;DHT22;12115;47.128;15.422;2023-11-21T09:04:56;8.20;99.90
23869;DHT22;12115;47.128;15.422;2023-11-21T09:07:23;8.20;99.90
23869;DHT22;12115;47.128;15.422;2023-11-21T09:09:49;8.20;99.90
23869;DHT22;12115;47.128;15.422;2023-11-21T09:12:16;8.20;99.90
23869;DHT22;12115;47.128;15.422;2023-11-21T09:14:43;8.20;99.90
23869;DHT22;12115;47.128;15.422;2023-11-21T09:17:10;8.20;99.90
23869;DHT22;12115;47.128;15.422;2023-11-21T09:19:38;8.30;99.90
23869;DHT22;12115;47.128;15.422;2023-11-21T09:22:05;8.30;99.90
23869;DHT22;12115;47.128;15.422;2023-11-21T09:24:34;8.40;99.90
23869;DHT22;12115;47.128;15.422;2023-11-21T09:27:01;8.40;99.90
23869;DHT22;12115;47.128;15.422;2023-11-21T09:29:27;8.50;99.90
23869;DHT22;12115;47.128;15.422;2023-11-21T09:31:55;8.50;99.90
23869;DHT22;12115;47.128;15.422;2023-11-21T09:34:21;8.50;99.90
23869;DHT22;12115;47.128;15.422;2023-11-21T09:36:48;8.50;99.90
23869;DHT22;12115;47.128;15.422;2023-11-21T09:39:14;8.50;99.90
23869;DHT22;12115;47.128;15.422;2023-11-21T09:41:43;8.50;99.90
23869;DHT22;12115;47.128;15.422;2023-11-21T09:44:11;8.50;99.90
23869;DHT22;12115;47.128;15.422;2023-11-21T09:46:42;8.60;99.90
23869;DHT22;12115;47.128;15.422;2023-11-21T09:49:09;8.60;99.90
23869;DHT22;12115;47.128;15.422;2023-11-21T09:51:47;8.70;99.90
23869;DHT22;12115;47.128;15.422;2023-11-21T09:54:13;8.70;99.90
23869;DHT22;12115;47.128;15.422;2023-11-21T09:56:41;8.70;99.90
23869;DHT22;12115;47.128;15.422;2023-11-21T09:59:10;8.70;99.90
23869;DHT22;12115;47.128;15.422;2023-11-21T10:01:39;8.80;99.90
23869;DHT22;12115;47.128;15.422;2023-11-21T10:04:06;8.70;99.90
23869;DHT22;12115;47.128;15.422;2023-11-21T10:06:38;8.70;99.90
23869;DHT22;12115;47.128;15.422;2023-11-21T10:09:05;8.80;99.90
23869;DHT22;12115;47.128;15.422;2023-11-21T10:11:40;8.80;99.90
23869;DHT22;12115;47.128;15.422;2023-11-21T10:14:10;8.80;99.90
23869;DHT22;12115;47.128;15.422;2023-11-21T10:16:38;8.80;99.90
23869;DHT22;12115;47.128;15.422;2023-11-21T10:19:05;8.90;99.90
23869;DHT22;12115;47.128;15.422;2023-11-21T10:21:38;8.90;99.90
23869;DHT22;12115;47.128;15.422;2023-11-21T10:24:04;8.90;99.90
23869;DHT22;12115;47.128;15.422;2023-11-21T10:26:31;8.90;99.90
23869;DHT22;12115;47.128;15.422;2023-11-21T10:29:09;8.90;99.90
23869;DHT22;12115;47.128;15.422;2023-11-21T10:31:38;8.90;99.90
23869;DHT22;12115;47.128;15.422;2023-11-21T10:34:15;9.00;99.90
23869;DHT22;12115;47.128;15.422;2023-11-21T10:36:42;9.00;99.90
23869;DHT22;12115;47.128;15.422;2023-11-21T10:39:08;9.00;99.90
23869;DHT22;12115;47.128;15.422;2023-11-21T10:41:35;9.00;99.90
23869;DHT22;12115;47.128;15.422;2023-11-21T10:44:02;9.00;99.90
23869;DHT22;12115;47.128;15.422;2023-11-21T10:46:35;9.00;99.90
23869;DHT22;12115;47.128;15.422;2023-11-21T10:49:01;9.10;99.90
23869;DHT22;12115;47.128;15.422;2023-11-21T10:51:28;9.00;99.90
23869;DHT22;12115;47.128;15.422;2023-11-21T10:53:54;9.10;99.90
23869;DHT22;12115;47.128;15.422;2023-11-21T10:56:21;9.10;99.90
23869;DHT22;12115;47.128;15.422;2023-11-21T10:58:48;9.10;99.90
23869;DHT22;12115;47.128;15.422;2023-11-21T11:01:15;9.20;99.90
23869;DHT22;12115;47.128;15.422;2023-11-21T11:03:42;9.20;99.90
23869;DHT22;12115;47.128;15.422;2023-11-21T11:06:10;9.20;99.90
23869;DHT22;12115;47.128;15.422;2023-11-21T11:08:40;9.20;99.90
23869;DHT22;12115;47.128;15.422;2023-11-21T11:11:06;9.20;99.90
23869;DHT22;12115;47.128;15.422;2023-11-21T11:13:33;9.20;99.90
23869;DHT22;12115;47.128;15.422;2023-11-21T11:15:59;9.20;99.90
23869;DHT22;12115;47.128;15.422;2023-11-21T11:18:29;9.20;99.90
23869;DHT22;12115;47.128;15.422;2023-11-21T11:31:27;9.30;99.90
23869;DHT22;12115;47.128;15.422;2023-11-21T11:34:04;9.30;99.90
23869;DHT22;12115;47.128;15.422;2023-11-21T11:36:43;9.30;99.90
23869;DHT22;12115;47.128;15.422;2023-11-21T11:41:56;9.40;99.90
23869;DHT22;12115;47.128;15.422;2023-11-21T11:47:24;9.50;99.90
23869;DHT22;12115;47.128;15.422;2023-11-21T11:50:08;9.50;99.90
23869;DHT22;12115;47.128;15.422;2023-11-21T11:52:46;9.40;99.90
23869;DHT22;12115;47.128;15.422;2023-11-21T11:55:13;9.50;99.90
23869;DHT22;12115;47.128;15.422;2023-11-21T11:57:40;9.50;99.90
23869;DHT22;12115;47.128;15.422;2023-11-21T12:02:35;9.60;99.90
23869;DHT22;12115;47.128;15.422;2023-11-21T12:05:08;9.60;99.90
23869;DHT22;12115;47.128;15.422;2023-11-21T12:07:48;9.60;99.90
23869;DHT22;12115;47.128;15.422;2023-11-21T12:10:15;9.70;99.90
23869;DHT22;12115;47.128;15.422;2023-11-21T12:12:44;9.70;99.90
23869;DHT22;12115;47.128;15.422;2023-11-21T12:15:12;9.70;99.90
23869;DHT22;12115;47.128;15.422;2023-11-21T12:17:39;9.70;99.90
23869;DHT22;12115;47.128;15.422;2023-11-21T12:20:06;9.70;99.90
23869;DHT22;12115;47.128;15.422;2023-11-21T12:23:13;9.70;99.90
23869;DHT22;12115;47.128;15.422;2023-11-21T12:25:32;9.70;99.90
23869;DHT22;12115;47.128;15.422;2023-11-21T12:28:00;9.60;99.90
23869;DHT22;12115;47.128;15.422;2023-11-21T12:30:27;9.60;99.90
23869;DHT22;12115;47.128;15.422;2023-11-21T12:32:58;9.60;99.90
23869;DHT22;12115;47.128;15.422;2023-11-21T12:35:25;9.60;99.90
23869;DHT22;12115;47.128;15.422;2023-11-21T12:37:51;9.60;99.90
23869;DHT22;12115;47.128;15.422;2023-11-21T12:40:18;9.70;99.90
23869;DHT22;12115;47.128;15.422;2023-11-21T12:42:45;9.70;99.90
23869;DHT22;12115;47.128;15.422;2023-11-21T12:45:21;9.70;99.90
23869;DHT22;12115;47.128;15.422;2023-11-21T12:47:55;9.70;99.90
23869;DHT22;12115;47.128;15.422;2023-11-21T12:50:23;9.80;99.90
23869;DHT22;12115;47.128;15.422;2023-11-21T12:52:52;9.80;99.90
23869;DHT22;12115;47.128;15.422;2023-11-21T12:55:20;9.80;99.90
23869;DHT22;12115;47.128;15.422;2023-11-21T12:57:48;9.70;99.90
23869;DHT22;12115;47.128;15.422;2023-11-21T13:00:17;9.80;99.90
23869;DHT22;12115;47.128;15.422;2023-11-21T13:02:57;9.80;99.90
23869;DHT22;12115;47.128;15.422;2023-11-21T13:05:28;9.80;99.90
23869;DHT22;12115;47.128;15.422;2023-11-21T13:07:55;9.80;99.90
23869;DHT22;12115;47.128;15.422;2023-11-21T13:10:23;9.80;99.90
23869;DHT22;12115;47.128;15.422;2023-11-21T13:12:52;9.80;99.90
23869;DHT22;12115;47.128;15.422;2023-11-21T13:15:19;9.80;99.90
23869;DHT22;12115;47.128;15.422;2023-11-21T13:17:46;9.90;99.90
23869;DHT22;12115;47.128;15.422;2023-11-21T13:20:12;9.90;99.90
23869;DHT22;12115;47.128;15.422;2023-11-21T13:22:47;9.90;99.90
23869;DHT22;12115;47.128;15.422;2023-11-21T13:25:17;9.90;99.90
23869;DHT22;12115;47.128;15.422;2023-11-21T13:27:44;9.90;99.90
23869;DHT22;12115;47.128;15.422;2023-11-21T13:30:12;9.90;99.90
23869;DHT22;12115;47.128;15.422;2023-11-21T13:32:41;9.90;99.90
23869;DHT22;12115;47.128;15.422;2023-11-21T13:35:08;9.90;99.90
23869;DHT22;12115;47.128;15.422;2023-11-21T13:37:40;10.00;99.90
23869;DHT22;12115;47.128;15.422;2023-11-21T13:40:06;9.90;99.90
23869;DHT22;12115;47.128;15.422;2023-11-21T13:42:41;9.90;99.90
23869;DHT22;12115;47.128;15.422;2023-11-21T13:45:07;9.90;99.90
23869;DHT22;12115;47.128;15.422;2023-11-21T13:47:34;9.90;99.90
23869;DHT22;12115;47.128;15.422;2023-11-21T13:50:02;10.00;99.90
23869;DHT22;12115;47.128;15.422;2023-11-21T13:52:29;10.00;99.90
23869;DHT22;12115;47.128;15.422;2023-11-21T13:54:59;10.00;99.90
23869;DHT22;12115;47.128;15.422;2023-11-21T13:57:28;10.00;99.90
23869;DHT22;12115;47.128;15.422;2023-11-21T13:59:55;10.00;99.90
23869;DHT22;12115;47.128;15.422;2023-11-21T14:02:22;10.00;99.90
23869;DHT22;12115;47.128;15.422;2023-11-21T14:04:58;10.00;99.90
23869;DHT22;12115;47.128;15.422;2023-11-21T14:07:27;10.00;99.90
23869;DHT22;12115;47.128;15.422;2023-11-21T14:10:02;10.00;99.90
23869;DHT22;12115;47.128;15.422;2023-11-21T14:12:29;9.90;99.90
23869;DHT22;12115;47.128;15.422;2023-11-21T14:15:02;9.90;99.90
23869;DHT22;12115;47.128;15.422;2023-11-21T14:17:30;9.90;99.90
23869;DHT22;12115;47.128;15.422;2023-11-21T14:19:57;9.90;99.90
23869;DHT22;12115;47.128;15.422;2023-11-21T14:22:23;9.90;99.90
23869;DHT22;12115;47.128;15.422;2023-11-21T14:24:51;9.90;99.90
23869;DHT22;12115;47.128;15.422;2023-11-21T14:27:18;9.90;99.90
23869;DHT22;12115;47.128;15.422;2023-11-21T14:29:45;9.90;99.90
23869;DHT22;12115;47.128;15.422;2023-11-21T14:32:11;9.90;99.90
23869;DHT22;12115;47.128;15.422;2023-11-21T14:34:38;9.90;99.90
23869;DHT22;12115;47.128;15.422;2023-11-21T14:37:04;9.80;99.90
23869;DHT22;12115;47.128;15.422;2023-11-21T14:39:30;9.80;99.90
23869;DHT22;12115;47.128;15.422;2023-11-21T14:41:56;9.70;99.90
23869;DHT22;12115;47.128;15.422;2023-11-21T14:44:23;9.70;99.90
23869;DHT22;12115;47.128;15.422;2023-11-21T14:46:52;9.70;99.90
23869;DHT22;12115;47.128;15.422;2023-11-21T14:49:22;9.60;99.90
23869;DHT22;12115;47.128;15.422;2023-11-21T14:51:51;9.60;99.90
23869;DHT22;12115;47.128;15.422;2023-11-21T14:54:27;9.60;99.90
23869;DHT22;12115;47.128;15.422;2023-11-21T14:57:06;9.50;99.90
23869;DHT22;12115;47.128;15.422;2023-11-21T14:59:42;9.50;99.90
23869;DHT22;12115;47.128;15.422;2023-11-21T15:02:08;9.40;99.90
23869;DHT22;12115;47.128;15.422;2023-11-21T15:04:42;9.40;99.90
23869;DHT22;12115;47.128;15.422;2023-11-21T15:07:08;9.40;99.90
23869;DHT22;12115;47.128;15.422;2023-11-21T15:09:35;9.30;99.90
23869;DHT22;12115;47.128;15.422;2023-11-21T15:12:05;9.20;99.90
23869;DHT22;12115;47.128;15.422;2023-11-21T15:14:46;9.20;99.90
23869;DHT22;12115;47.128;15.422;2023-11-21T15:17:15;9.20;99.90
23869;DHT22;12115;47.128;15.422;2023-11-21T15:19:48;9.20;99.90
23869;DHT22;12115;47.128;15.422;2023-11-21T15:22:14;9.10;99.90
23869;DHT22;12115;47.128;15.422;2023-11-21T15:24:42;9.00;99.90
23869;DHT22;12115;47.128;15.422;2023-11-21T15:27:10;9.00;99.90
23869;DHT22;12115;47.128;15.422;2023-11-21T15:29:37;9.00;99.90
23869;DHT22;12115;47.128;15.422;2023-11-21T15:32:05;9.00;99.90
23869;DHT22;12115;47.128;15.422;2023-11-21T15:34:32;9.00;99.90
23869;DHT22;12115;47.128;15.422;2023-11-21T15:36:58;9.00;99.90
23869;DHT22;12115;47.128;15.422;2023-11-21T15:39:25;9.00;99.90
23869;DHT22;12115;47.128;15.422;2023-11-21T15:41:55;9.00;99.90
23869;DHT22;12115;47.128;15.422;2023-11-21T15:44:22;9.00;99.90
23869;DHT22;12115;47.128;15.422;2023-11-21T15:46:49;8.90;99.90
23869;DHT22;12115;47.128;15.422;2023-11-21T15:49:16;8.80;99.90
23869;DHT22;12115;47.128;15.422;2023-11-21T15:51:44;8.70;99.90